sensor_id;sensor_type;location;lat;lon;timestamp;pressure;altitude;pressure_sealevel;temperature;humidity
58821;BME280;70670;52.476;13.334;2023-11-21T00:00:08;100205.81;;;7.09;100.00
58821;BME280;70670;52.476;13.334;2023-11-21T00:02:57;100210.00;;;6.96;100.00
58821;BME280;70670;52.476;13.334;2023-11-21T00:05:23;100206.34;;;6.98;100.00
58821;BME280;70670;52.476;13.334;2023-11-21T00:07:48;100206.66;;;6.73;100.00
58821;BME280;70670;52.476;13.334;2023-11-21T00:10:14;100208.06;;;6.80;100.00
58821;BME280;70670;52.476;13.334;2023-11-21T00:12:41;100222.31;;;6.79;100.00
58821;BME280;70670;52.476;13.334;2023-11-21T00:15:07;100218.69;;;6.80;100.00
58821;BME280;70670;52.476;13.334;2023-11-21T00:17:36;100232.59;;;6.68;100.00
58821;BME280;70670;52.476;13.334;2023-11-21T00:20:03;100226.75;;;6.60;100.00
58821;BME280;70670;52.476;13.334;2023-11-21T00:22:31;100225.03;;;6.59;100.00
58821;BME280;70670;52.476;13.334;2023-11-21T00:24:57;100230.59;;;6.54;100.00
58821;BME280;70670;52.476;13.334;2023-11-21T00:27:23;100233.81;;;6.42;100.00
58821;BME280;70670;52.476;13.334;2023-11-21T00:29:48;100232.41;;;6.33;100.00
58821;BME280;70670;52.476;13.334;2023-11-21T00:32:14;100229.91;;;6.30;100.00
58821;BME280;70670;52.476;13.334;2023-11-21T00:34:39;100244.53;;;6.20;100.00
58821;BME280;70670;52.476;13.334;2023-11-21T00:37:05;100244.53;;;6.20;100.00
58821;BME280;70670;52.476;13.334;2023-11-21T00:39:30;100247.41;;;6.15;100.00
58821;BME280;70670;52.476;13.334;2023-11-21T00:41:58;100204.16;;;5.91;100.00
58821;BME280;70670;52.476;13.334;2023-11-21T00:44:23;100252.63;;;6.17;100.00
58821;BME280;70670;52.476;13.334;2023-11-21T00:46:49;100257.91;;;6.19;100.00
58821;BME280;70670;52.476;13.334;2023-11-21T00:49:16;100258.75;;;6.19;100.00
58821;BME280;70670;52.476;13.334;2023-11-21T00:51:41;100259.69;;;6.18;100.00
58821;BME280;70670;52.476;13.334;2023-11-21T00:54:06;100257.16;;;6.15;100.00
58821;BME280;70670;52.476;13.334;2023-11-21T00:56:32;100268.47;;;6.00;100.00
58821;BME280;70670;52.476;13.334;2023-11-21T00:58:57;100260.25;;;6.06;100.00
58821;BME280;70670;52.476;13.334;2023-11-21T01:01:23;100270.78;;;6.07;100.00
58821;BME280;70670;52.476;13.334;2023-11-21T01:03:50;100266.22;;;5.89;100.00
58821;BME280;70670;52.476;13.334;2023-11-21T01:06:16;100279.34;;;5.94;100.00
58821;BME280;70670;52.476;13.334;2023-11-21T01:08:42;100276.00;;;5.88;100.00
58821;BME280;70670;52.476;13.334;2023-11-21T01:11:07;100285.03;;;5.84;100.00
58821;BME280;70670;52.476;13.334;2023-11-21T01:13:38;100285.28;;;5.78;100.00
58821;BME280;70670;52.476;13.334;2023-11-21T01:16:04;100287.13;;;5.76;100.00
58821;BME280;70670;52.476;13.334;2023-11-21T01:18:32;100292.03;;;5.65;100.00
58821;BME280;70670;52.476;13.334;2023-11-21T01:20:57;100301.78;;;5.64;100.00
58821;BME280;70670;52.476;13.334;2023-11-21T01:23:23;100303.69;;;5.61;100.00
58821;BME280;70670;52.476;13.334;2023-11-21T01:25:48;100298.50;;;5.58;100.00
58821;BME280;70670;52.476;13.334;2023-11-21T01:28:13;100301.91;;;5.61;100.00
58821;BME280;70670;52.476;13.334;2023-11-21T01:30:39;100319.72;;;5.59;100.00
58821;BME280;70670;52.476;13.334;2023-11-21T01:33:04;100314.91;;;5.47;100.00
58821;BME280;70670;52.476;13.334;2023-11-21T01:35:30;100321.84;;;5.50;100.00
58821;BME280;70670;52.476;13.334;2023-11-21T01:37:55;100318.84;;;5.59;100.00
58821;BME280;70670;52.476;13.334;2023-11-21T01:40:21;100321.00;;;5.49;100.00
58821;BME280;70670;52.476;13.334;2023-11-21T01:42:47;100321.06;;;5.48;100.00
58821;BME280;70670;52.476;13.334;2023-11-21T01:45:13;100323.59;;;5.51;100.00
58821;BME280;70670;52.476;13.334;2023-11-21T01:47:41;100318.66;;;5.41;100.00
58821;BME280;70670;52.476;13.334;2023-11-21T01:50:07;100322.34;;;5.37;100.00
58821;BME280;70670;52.476;13.334;2023-11-21T01:52:34;100325.72;;;5.42;100.00
58821;BME280;70670;52.476;13.334;2023-11-21T01:55:00;100327.66;;;5.37;100.00
58821;BME280;70670;52.476;13.334;2023-11-21T01:57:26;100326.06;;;5.33;100.00
58821;BME280;70670;52.476;13.334;2023-11-21T01:59:51;100332.97;;;5.37;100.00
58821;BME280;70670;52.476;13.334;2023-11-21T02:02:19;100331.13;;;5.39;100.00
58821;BME280;70670;52.476;13.334;2023-11-21T02:04:44;100345.31;;;5.38;100.00
58821;BME280;70670;52.476;13.334;2023-11-21T02:07:10;100345.56;;;5.32;100.00
58821;BME280;70670;52.476;13.334;2023-11-21T02:09:35;100347.06;;;5.39;100.00
58821;BME280;70670;52.476;13.334;2023-11-21T02:12:03;100345.44;;;5.35;100.00
58821;BME280;70670;52.476;13.334;2023-11-21T02:14:30;100348.88;;;5.37;100.00
58821;BME280;70670;52.476;13.334;2023-11-21T02:16:56;100354.31;;;5.34;100.00
58821;BME280;70670;52.476;13.334;2023-11-21T02:19:22;100356.28;;;5.29;100.00
58821;BME280;70670;52.476;13.334;2023-11-21T02:21:51;100364.63;;;5.42;100.00
58821;BME280;70670;52.476;13.334;2023-11-21T02:24:22;100357.84;;;5.35;100.00
58821;BME280;70670;52.476;13.334;2023-11-21T02:26:48;100355.19;;;5.35;100.00
58821;BME280;70670;52.476;13.334;2023-11-21T02:29:19;100361.13;;;5.18;100.00
58821;BME280;70670;52.476;13.334;2023-11-21T02:31:48;100356.78;;;5.17;100.00
58821;BME280;70670;52.476;13.334;2023-11-21T02:34:14;100356.31;;;5.06;100.00
58821;BME280;70670;52.476;13.334;2023-11-21T02:36:40;100357.25;;;5.05;100.00
58821;BME280;70670;52.476;13.334;2023-11-21T02:39:05;100352.81;;;5.05;100.00
58821;BME280;70670;52.476;13.334;2023-11-21T02:41:32;100357.13;;;5.08;100.00
58821;BME280;70670;52.476;13.334;2023-11-21T02:43:59;100362.44;;;5.08;100.00
58821;BME280;70670;52.476;13.334;2023-11-21T02:46:25;100371.75;;;4.94;100.00
58821;BME280;70670;52.476;13.334;2023-11-21T02:48:50;100372.66;;;4.95;100.00
58821;BME280;70670;52.476;13.334;2023-11-21T02:51:16;100373.50;;;4.96;100.00
58821;BME280;70670;52.476;13.334;2023-11-21T02:53:41;100368.72;;;5.05;100.00
58821;BME280;70670;52.476;13.334;2023-11-21T02:56:07;100377.63;;;5.03;100.00
58821;BME280;70670;52.476;13.334;2023-11-21T02:58:32;100367.22;;;4.98;100.00
58821;BME280;70670;52.476;13.334;2023-11-21T03:00:58;100372.50;;;4.98;100.00
58821;BME280;70670;52.476;13.334;2023-11-21T03:03:24;100365.66;;;4.92;100.00
58821;BME280;70670;52.476;13.334;2023-11-21T03:05:50;100378.25;;;4.87;100.00
58821;BME280;70670;52.476;13.334;2023-11-21T03:08:15;100376.78;;;4.79;100.00
58821;BME280;70670;52.476;13.334;2023-11-21T03:10:41;100381.00;;;4.84;100.00
58821;BME280;70670;52.476;13.334;2023-11-21T03:13:06;100387.00;;;4.89;100.00
58821;BME280;70670;52.476;13.334;2023-11-21T03:15:32;100384.88;;;4.99;100.00
58821;BME280;70670;52.476;13.334;2023-11-21T03:17:58;100380.25;;;4.81;100.00
58821;BME280;70670;52.476;13.334;2023-11-21T03:20:23;100383.25;;;4.72;100.00
58821;BME280;70670;52.476;13.334;2023-11-21T03:22:49;100389.63;;;4.66;100.00
58821;BME280;70670;52.476;13.334;2023-11-21T03:25:14;100391.19;;;4.72;100.00
58821;BME280;70670;52.476;13.334;2023-11-21T03:27:40;100398.91;;;4.78;100.00
58821;BME280;70670;52.476;13.334;2023-11-21T03:30:07;100401.44;;;4.81;100.00
58821;BME280;70670;52.476;13.334;2023-11-21T03:32:33;100400.91;;;4.71;100.00
58821;BME280;70670;52.476;13.334;2023-11-21T03:34:59;100410.34;;;4.80;100.00
58821;BME280;70670;52.476;13.334;2023-11-21T03:37:25;100414.03;;;4.76;100.00
58821;BME280;70670;52.476;13.334;2023-11-21T03:39:52;100424.06;;;4.66;100.00
58821;BME280;70670;52.476;13.334;2023-11-21T03:42:18;100421.66;;;4.60;100.00
58821;BME280;70670;52.476;13.334;2023-11-21T03:44:43;100419.88;;;4.60;100.00
58821;BME280;70670;52.476;13.334;2023-11-21T03:47:09;100425.97;;;4.62;100.00
58821;BME280;70670;52.476;13.334;2023-11-21T03:49:35;100432.94;;;4.65;100.00
58821;BME280;70670;52.476;13.334;2023-11-21T03:52:00;100434.91;;;4.60;100.00
58821;BME280;70670;52.476;13.334;2023-11-21T03:54:26;100438.94;;;4.70;100.00
58821;BME280;70670;52.476;13.334;2023-11-21T03:56:51;100441.34;;;4.53;100.00
58821;BME280;70670;52.476;13.334;2023-11-21T03:59:17;100439.81;;;4.46;100.00
58821;BME280;70670;52.476;13.334;2023-11-21T04:01:42;100444.09;;;4.50;100.00
58821;BME280;70670;52.476;13.334;2023-11-21T04:04:08;100446.63;;;4.53;100.00
58821;BME280;70670;52.476;13.334;2023-11-21T04:06:33;100449.63;;;4.42;100.00
58821;BME280;70670;52.476;13.334;2023-11-21T04:08:59;100452.97;;;4.49;100.00
58821;BME280;70670;52.476;13.334;2023-11-21T04:11:24;100453.72;;;4.52;100.00
58821;BME280;70670;52.476;13.334;2023-11-21T04:13:50;100457.13;;;4.56;100.00
58821;BME280;70670;52.476;13.334;2023-11-21T04:16:15;100455.00;;;4.40;100.00
58821;BME280;70670;52.476;13.334;2023-11-21T04:18:41;100459.81;;;4.54;100.00
58821;BME280;70670;52.476;13.334;2023-11-21T04:21:06;100463.84;;;4.39;100.00
58821;BME280;70670;52.476;13.334;2023-11-21T04:23:33;100465.78;;;4.34;100.00
58821;BME280;70670;52.476;13.334;2023-11-21T04:25:59;100479.25;;;4.28;100.00
58821;BME280;70670;52.476;13.334;2023-11-21T04:28:25;100471.09;;;4.34;100.00
58821;BME280;70670;52.476;13.334;2023-11-21T04:30:50;100480.50;;;4.43;100.00
58821;BME280;70670;52.476;13.334;2023-11-21T04:33:16;100480.63;;;4.40;100.00
58821;BME280;70670;52.476;13.334;2023-11-21T04:35:41;100479.56;;;4.46;100.00
58821;BME280;70670;52.476;13.334;2023-11-21T04:38:07;100477.09;;;4.39;100.00
58821;BME280;70670;52.476;13.334;2023-11-21T04:40:32;100484.91;;;4.44;100.00
58821;BME280;70670;52.476;13.334;2023-11-21T04:42:58;100486.22;;;4.31;100.00
58821;BME280;70670;52.476;13.334;2023-11-21T04:45:23;100492.59;;;4.25;100.00
58821;BME280;70670;52.476;13.334;2023-11-21T04:47:49;100492.19;;;4.37;100.00
58821;BME280;70670;52.476;13.334;2023-11-21T04:50:14;100493.75;;;4.43;100.00
58821;BME280;70670;52.476;13.334;2023-11-21T04:52:39;100494.00;;;4.35;100.00
58821;BME280;70670;52.476;13.334;2023-11-21T04:55:05;100493.38;;;4.29;100.00
58821;BME280;70670;52.476;13.334;2023-11-21T04:57:32;100492.13;;;4.39;100.00
58821;BME280;70670;52.476;13.334;2023-11-21T04:59:57;100498.16;;;4.44;100.00
58821;BME280;70670;52.476;13.334;2023-11-21T05:02:23;100500.75;;;4.46;100.00
58821;BME280;70670;52.476;13.334;2023-11-21T05:04:48;100500.75;;;4.46;100.00
58821;BME280;70670;52.476;13.334;2023-11-21T05:07:14;100511.34;;;4.46;100.00
58821;BME280;70670;52.476;13.334;2023-11-21T05:09:42;100511.03;;;4.55;100.00
58821;BME280;70670;52.476;13.334;2023-11-21T05:12:14;100515.19;;;4.37;100.00
58821;BME280;70670;52.476;13.334;2023-11-21T05:14:39;100524.75;;;4.41;100.00
58821;BME280;70670;52.476;13.334;2023-11-21T05:17:05;100531.47;;;4.51;100.00
58821;BME280;70670;52.476;13.334;2023-11-21T05:19:30;100531.94;;;4.37;100.00
58821;BME280;70670;52.476;13.334;2023-11-21T05:21:58;100534.03;;;4.28;100.00
58821;BME280;70670;52.476;13.334;2023-11-21T05:24:25;100529.53;;;4.30;100.00
58821;BME280;70670;52.476;13.334;2023-11-21T05:26:51;100538.44;;;4.27;100.00
58821;BME280;70670;52.476;13.334;2023-11-21T05:29:16;100533.25;;;4.24;100.00
58821;BME280;70670;52.476;13.334;2023-11-21T05:31:42;100534.78;;;4.31;100.00
58821;BME280;70670;52.476;13.334;2023-11-21T05:34:07;100538.81;;;4.16;100.00
58821;BME280;70670;52.476;13.334;2023-11-21T05:36:33;100549.16;;;4.24;100.00
58821;BME280;70670;52.476;13.334;2023-11-21T05:38:58;100549.03;;;4.27;100.00
58821;BME280;70670;52.476;13.334;2023-11-21T05:41:24;100551.81;;;4.24;100.00
58821;BME280;70670;52.476;13.334;2023-11-21T05:43:50;100556.19;;;4.25;100.00
58821;BME280;70670;52.476;13.334;2023-11-21T05:46:16;100558.13;;;4.20;100.00
58821;BME280;70670;52.476;13.334;2023-11-21T05:48:42;100562.09;;;4.33;100.00
58821;BME280;70670;52.476;13.334;2023-11-21T05:51:07;100562.91;;;4.35;100.00
58821;BME280;70670;52.476;13.334;2023-11-21T05:53:33;100570.91;;;4.34;100.00
58821;BME280;70670;52.476;13.334;2023-11-21T05:55:59;100570.44;;;4.21;100.00
58821;BME280;70670;52.476;13.334;2023-11-21T05:58:25;100577.66;;;4.16;100.00
58821;BME280;70670;52.476;13.334;2023-11-21T06:00:50;100573.16;;;4.18;100.00
58821;BME280;70670;52.476;13.334;2023-11-21T06:03:16;100578.75;;;4.09;100.00
58821;BME280;70670;52.476;13.334;2023-11-21T06:05:42;100584.94;;;4.08;100.00
58821;BME280;70670;52.476;13.334;2023-11-21T06:08:08;100581.31;;;4.12;100.00
58821;BME280;70670;52.476;13.334;2023-11-21T06:10:34;100589.06;;;4.18;100.00
58821;BME280;70670;52.476;13.334;2023-11-21T06:12:59;100597.16;;;4.13;100.00
58821;BME280;70670;52.476;13.334;2023-11-21T06:15:25;100600.75;;;4.11;100.00
58821;BME280;70670;52.476;13.334;2023-11-21T06:17:50;100599.88;;;4.12;100.00
58821;BME280;70670;52.476;13.334;2023-11-21T06:20:18;100600.84;;;4.08;100.00
58821;BME280;70670;52.476;13.334;2023-11-21T06:22:44;100602.50;;;4.12;100.00
58821;BME280;70670;52.476;13.334;2023-11-21T06:25:10;100609.72;;;4.07;100.00
58821;BME280;70670;52.476;13.334;2023-11-21T06:27:37;100616.72;;;4.08;100.00
58821;BME280;70670;52.476;13.334;2023-11-21T06:30:03;100624.94;;;4.00;100.00
58821;BME280;70670;52.476;13.334;2023-11-21T06:32:29;100616.72;;;4.08;100.00
58821;BME280;70670;52.476;13.334;2023-11-21T06:34:57;100628.31;;;4.05;100.00
58821;BME280;70670;52.476;13.334;2023-11-21T06:37:27;100640.03;;;3.97;100.00
58821;BME280;70670;52.476;13.334;2023-11-21T06:39:53;100640.19;;;3.90;100.00
58821;BME280;70670;52.476;13.334;2023-11-21T06:42:19;100593.91;;;3.74;100.00
58821;BME280;70670;52.476;13.334;2023-11-21T06:44:47;100650.50;;;4.00;100.00
58821;BME280;70670;52.476;13.334;2023-11-21T06:47:13;100651.28;;;4.03;100.00
58821;BME280;70670;52.476;13.334;2023-11-21T06:49:39;100654.00;;;4.02;100.00
58821;BME280;70670;52.476;13.334;2023-11-21T06:52:05;100652.50;;;3.91;100.00
58821;BME280;70670;52.476;13.334;2023-11-21T06:54:31;100660.47;;;3.91;100.00
58821;BME280;70670;52.476;13.334;2023-11-21T06:56:56;100660.25;;;3.99;100.00
58821;BME280;70670;52.476;13.334;2023-11-21T06:59:22;100662.94;;;3.98;100.00
58821;BME280;70670;52.476;13.334;2023-11-21T07:01:49;100660.69;;;3.84;100.00
58821;BME280;70670;52.476;13.334;2023-11-21T07:04:14;100664.88;;;3.92;99.06
58821;BME280;70670;52.476;13.334;2023-11-21T07:06:40;100670.59;;;3.77;97.19
58821;BME280;70670;52.476;13.334;2023-11-21T07:09:06;100664.25;;;3.83;99.62
58821;BME280;70670;52.476;13.334;2023-11-21T07:11:33;100668.59;;;3.85;100.00
58821;BME280;70670;52.476;13.334;2023-11-21T07:13:59;100675.69;;;3.83;98.96
58821;BME280;70670;52.476;13.334;2023-11-21T07:16:24;100666.94;;;3.81;100.00
58821;BME280;70670;52.476;13.334;2023-11-21T07:18:52;100674.06;;;3.79;98.95
58821;BME280;70670;52.476;13.334;2023-11-21T07:21:17;100687.28;;;3.79;100.00
58821;BME280;70670;52.476;13.334;2023-11-21T07:23:43;100684.56;;;3.82;100.00
58821;BME280;70670;52.476;13.334;2023-11-21T07:26:08;100686.56;;;3.74;100.00
58821;BME280;70670;52.476;13.334;2023-11-21T07:28:36;100681.19;;;3.76;100.00
58821;BME280;70670;52.476;13.334;2023-11-21T07:31:01;100682.91;;;3.78;100.00
58821;BME280;70670;52.476;13.334;2023-11-21T07:33:27;100686.41;;;3.80;100.00
58821;BME280;70670;52.476;13.334;2023-11-21T07:35:52;100690.63;;;3.86;100.00
58821;BME280;70670;52.476;13.334;2023-11-21T07:38:18;100693.94;;;3.94;100.00
58821;BME280;70670;52.476;13.334;2023-11-21T07:40:43;100697.44;;;3.94;100.00
58821;BME280;70670;52.476;13.334;2023-11-21T07:43:09;100702.09;;;3.86;100.00
58821;BME280;70670;52.476;13.334;2023-11-21T07:45:35;100705.66;;;3.85;100.00
58821;BME280;70670;52.476;13.334;2023-11-21T07:48:01;100699.66;;;3.79;99.43
58821;BME280;70670;52.476;13.334;2023-11-21T07:50:28;100708.22;;;3.88;100.00
58821;BME280;70670;52.476;13.334;2023-11-21T07:52:54;100706.44;;;3.89;100.00
58821;BME280;70670;52.476;13.334;2023-11-21T07:55:20;100702.09;;;3.86;100.00
58821;BME280;70670;52.476;13.334;2023-11-21T07:57:45;100699.94;;;4.01;100.00
58821;BME280;70670;52.476;13.334;2023-11-21T08:00:11;100704.69;;;3.88;100.00
58821;BME280;70670;52.476;13.334;2023-11-21T08:02:39;100703.81;;;3.87;100.00
58821;BME280;70670;52.476;13.334;2023-11-21T08:05:04;100716.16;;;3.88;100.00
58821;BME280;70670;52.476;13.334;2023-11-21T08:07:30;100724.97;;;3.89;100.00
58821;BME280;70670;52.476;13.334;2023-11-21T08:09:56;100734.34;;;4.01;100.00
58821;BME280;70670;52.476;13.334;2023-11-21T08:12:22;100735.50;;;3.90;98.85
58821;BME280;70670;52.476;13.334;2023-11-21T08:14:47;100745.28;;;3.88;98.34
58821;BME280;70670;52.476;13.334;2023-11-21T08:17:13;100744.97;;;3.99;99.92
58821;BME280;70670;52.476;13.334;2023-11-21T08:19:39;100749.81;;;4.16;99.79
58821;BME280;70670;52.476;13.334;2023-11-21T08:22:04;100738.53;;;4.08;100.00
58821;BME280;70670;52.476;13.334;2023-11-21T08:24:32;100740.34;;;4.07;98.91
58821;BME280;70670;52.476;13.334;2023-11-21T08:26:58;100740.81;;;3.90;97.80
58821;BME280;70670;52.476;13.334;2023-11-21T08:29:23;100747.59;;;4.01;99.57
58821;BME280;70670;52.476;13.334;2023-11-21T08:31:49;100749.47;;;3.97;99.95
58821;BME280;70670;52.476;13.334;2023-11-21T08:34:14;100748.81;;;3.89;99.02
58821;BME280;70670;52.476;13.334;2023-11-21T08:36:41;100749.34;;;3.67;93.86
58821;BME280;70670;52.476;13.334;2023-11-21T08:39:06;100752.56;;;3.80;97.36
58821;BME280;70670;52.476;13.334;2023-11-21T08:41:32;100757.88;;;3.79;97.21
58821;BME280;70670;52.476;13.334;2023-11-21T08:43:57;100763.44;;;3.69;95.26
58821;BME280;70670;52.476;13.334;2023-11-21T08:46:23;100764.22;;;3.73;95.68
58821;BME280;70670;52.476;13.334;2023-11-21T08:48:51;100759.63;;;3.80;94.27
58821;BME280;70670;52.476;13.334;2023-11-21T08:51:18;100767.69;;;3.75;94.72
58821;BME280;70670;52.476;13.334;2023-11-21T08:53:43;100773.78;;;3.79;97.46
58821;BME280;70670;52.476;13.334;2023-11-21T08:56:12;100780.19;;;3.70;95.90
58821;BME280;70670;52.476;13.334;2023-11-21T08:58:38;100775.59;;;3.77;96.44
58821;BME280;70670;52.476;13.334;2023-11-21T09:01:04;100773.16;;;3.69;95.10
58821;BME280;70670;52.476;13.334;2023-11-21T09:03:29;100778.94;;;3.83;97.83
58821;BME280;70670;52.476;13.334;2023-11-21T09:05:55;100784.09;;;3.89;100.00
58821;BME280;70670;52.476;13.334;2023-11-21T09:08:20;100795.34;;;3.98;100.00
58821;BME280;70670;52.476;13.334;2023-11-21T09:10:47;100796.94;;;4.03;97.84
58821;BME280;70670;52.476;13.334;2023-11-21T09:13:13;100796.00;;;4.06;97.98
58821;BME280;70670;52.476;13.334;2023-11-21T09:15:38;100796.06;;;4.03;97.67
58821;BME280;70670;52.476;13.334;2023-11-21T09:18:03;100802.22;;;4.03;97.72
58821;BME280;70670;52.476;13.334;2023-11-21T09:20:30;100818.09;;;4.05;97.72
58821;BME280;70670;52.476;13.334;2023-11-21T09:22:55;100812.03;;;4.01;96.00
58821;BME280;70670;52.476;13.334;2023-11-21T09:25:21;100814.88;;;3.93;94.41
58821;BME280;70670;52.476;13.334;2023-11-21T09:27:47;100814.00;;;3.93;95.15
58821;BME280;70670;52.476;13.334;2023-11-21T09:30:13;100822.22;;;3.82;93.05
58821;BME280;70670;52.476;13.334;2023-11-21T09:32:39;100828.31;;;3.86;94.73
58821;BME280;70670;52.476;13.334;2023-11-21T09:35:05;100831.22;;;3.75;93.18
58821;BME280;70670;52.476;13.334;2023-11-21T09:37:33;100829.25;;;3.83;96.00
58821;BME280;70670;52.476;13.334;2023-11-21T09:39:59;100833.84;;;3.77;95.50
58821;BME280;70670;52.476;13.334;2023-11-21T09:42:25;100841.72;;;3.78;94.77
58821;BME280;70670;52.476;13.334;2023-11-21T09:47:33;100832.72;;;3.85;92.77
58821;BME280;70670;52.476;13.334;2023-11-21T09:50:01;100837.78;;;3.94;96.87
58821;BME280;70670;52.476;13.334;2023-11-21T09:52:27;100841.28;;;3.97;95.60
58821;BME280;70670;52.476;13.334;2023-11-21T09:54:53;100851.13;;;3.90;93.68
58821;BME280;70670;52.476;13.334;2023-11-21T09:57:20;100855.38;;;3.97;95.56
58821;BME280;70670;52.476;13.334;2023-11-21T09:59:47;100858.97;;;3.94;93.80
58821;BME280;70670;52.476;13.334;2023-11-21T10:02:16;100856.38;;;3.93;94.23
58821;BME280;70670;52.476;13.334;2023-11-21T10:04:44;100854.47;;;3.98;95.26
58821;BME280;70670;52.476;13.334;2023-11-21T10:07:10;100858.47;;;3.79;92.45
58821;BME280;70670;52.476;13.334;2023-11-21T10:09:36;100860.78;;;3.92;97.12
58821;BME280;70670;52.476;13.334;2023-11-21T10:12:03;100862.66;;;3.87;95.17
58821;BME280;70670;52.476;13.334;2023-11-21T10:14:32;100867.66;;;4.00;96.25
58821;BME280;70670;52.476;13.334;2023-11-21T10:16:58;100867.97;;;3.87;94.42
58821;BME280;70670;52.476;13.334;2023-11-21T10:19:24;100856.38;;;3.93;96.12
58821;BME280;70670;52.476;13.334;2023-11-21T10:21:51;100862.47;;;3.97;97.01
58821;BME280;70670;52.476;13.334;2023-11-21T10:24:17;100867.75;;;3.97;97.66
58821;BME280;70670;52.476;13.334;2023-11-21T10:26:43;100873.06;;;3.95;97.82
58821;BME280;70670;52.476;13.334;2023-11-21T10:29:09;100877.75;;;3.84;94.18
58821;BME280;70670;52.476;13.334;2023-11-21T10:31:37;100869.88;;;3.82;95.22
58821;BME280;70670;52.476;13.334;2023-11-21T10:34:16;100870.59;;;3.89;97.19
58821;BME280;70670;52.476;13.334;2023-11-21T10:36:41;100875.81;;;3.92;97.54
58821;BME280;70670;52.476;13.334;2023-11-21T10:39:07;100867.75;;;3.97;97.93
58821;BME280;70670;52.476;13.334;2023-11-21T10:41:33;100877.81;;;3.82;95.76
58821;BME280;70670;52.476;13.334;2023-11-21T10:43:58;100890.97;;;3.85;97.51
58821;BME280;70670;52.476;13.334;2023-11-21T10:46:23;100884.31;;;3.69;95.38
58821;BME280;70670;52.476;13.334;2023-11-21T10:48:54;100885.19;;;3.69;97.13
58821;BME280;70670;52.476;13.334;2023-11-21T10:51:21;100888.59;;;3.75;97.34
58821;BME280;70670;52.476;13.334;2023-11-21T10:53:47;100892.31;;;3.66;96.87
58821;BME280;70670;52.476;13.334;2023-11-21T10:56:13;100896.00;;;3.60;96.58
58821;BME280;70670;52.476;13.334;2023-11-21T10:58:43;100900.50;;;3.57;97.64
58821;BME280;70670;52.476;13.334;2023-11-21T11:01:08;100896.41;;;3.42;97.28
58821;BME280;70670;52.476;13.334;2023-11-21T11:03:37;100907.00;;;3.42;98.65
58821;BME280;70670;52.476;13.334;2023-11-21T11:06:04;100908.66;;;3.46;99.29
58821;BME280;70670;52.476;13.334;2023-11-21T11:08:30;100910.41;;;3.47;100.00
58821;BME280;70670;52.476;13.334;2023-11-21T11:10:56;100913.09;;;3.45;99.36
58821;BME280;70670;52.476;13.334;2023-11-21T11:13:23;100911.22;;;3.51;99.72
58821;BME280;70670;52.476;13.334;2023-11-21T11:15:49;100905.78;;;3.57;100.00
58821;BME280;70670;52.476;13.334;2023-11-21T11:18:15;100906.53;;;3.62;100.00
58821;BME280;70670;52.476;13.334;2023-11-21T11:20:40;100912.94;;;3.52;100.00
58821;BME280;70670;52.476;13.334;2023-11-21T11:23:20;100913.97;;;3.46;100.00
58821;BME280;70670;52.476;13.334;2023-11-21T11:28:38;100927.09;;;3.51;100.00
58821;BME280;70670;52.476;13.334;2023-11-21T11:33:59;100931.09;;;3.28;100.00
58821;BME280;70670;52.476;13.334;2023-11-21T11:36:34;100933.78;;;3.27;100.00
58821;BME280;70670;52.476;13.334;2023-11-21T11:39:01;100942.44;;;3.35;100.00
58821;BME280;70670;52.476;13.334;2023-11-21T11:41:29;100945.97;;;3.34;100.00
58821;BME280;70670;52.476;13.334;2023-11-21T11:43:56;100945.56;;;3.12;100.00
58821;BME280;70670;52.476;13.334;2023-11-21T11:46:32;100947.19;;;3.19;100.00
58821;BME280;70670;52.476;13.334;2023-11-21T11:49:07;100951.59;;;3.18;100.00
58821;BME280;70670;52.476;13.334;2023-11-21T11:51:33;100956.19;;;3.10;100.00
58821;BME280;70670;52.476;13.334;2023-11-21T11:54:01;100960.59;;;3.10;100.00
58821;BME280;70670;52.476;13.334;2023-11-21T11:56:30;100955.16;;;3.17;100.00
58821;BME280;70670;52.476;13.334;2023-11-21T11:58:58;100970.00;;;3.23;100.00
58821;BME280;70670;52.476;13.334;2023-11-21T12:01:24;100973.56;;;3.22;100.00
58821;BME280;70670;52.476;13.334;2023-11-21T12:06:34;100980.03;;;3.07;98.58
58821;BME280;70670;52.476;13.334;2023-11-21T12:09:01;100986.19;;;3.08;99.81
58821;BME280;70670;52.476;13.334;2023-11-21T12:11:33;100987.88;;;3.12;99.68
58821;BME280;70670;52.476;13.334;2023-11-21T12:14:01;100993.00;;;3.21;98.88
58821;BME280;70670;52.476;13.334;2023-11-21T12:16:27;100990.41;;;3.18;98.93
58821;BME280;70670;52.476;13.334;2023-11-21T12:18:53;100991.22;;;3.20;99.79
58821;BME280;70670;52.476;13.334;2023-11-21T12:21:19;101006.28;;;3.16;98.50
58821;BME280;70670;52.476;13.334;2023-11-21T12:23:45;101006.66;;;2.98;97.68
58821;BME280;70670;52.476;13.334;2023-11-21T12:26:12;101002.81;;;3.14;98.71
58821;BME280;70670;52.476;13.334;2023-11-21T12:28:38;101007.19;;;3.17;97.98
58821;BME280;70670;52.476;13.334;2023-11-21T12:31:04;101012.56;;;3.11;98.39
58821;BME280;70670;52.476;13.334;2023-11-21T12:33:35;101015.31;;;3.05;97.24
58821;BME280;70670;52.476;13.334;2023-11-21T12:36:00;101018.06;;;3.02;97.86
58821;BME280;70670;52.476;13.334;2023-11-21T12:38:33;101025.06;;;3.03;99.17
58821;BME280;70670;52.476;13.334;2023-11-21T12:40:58;101024.88;;;3.12;100.00
58821;BME280;70670;52.476;13.334;2023-11-21T12:43:24;101031.03;;;3.14;100.00
58821;BME280;70670;52.476;13.334;2023-11-21T12:45:49;101027.38;;;3.21;100.00
58821;BME280;70670;52.476;13.334;2023-11-21T12:48:15;101021.06;;;3.27;100.00